Time;durP1;ratioP1;P1;durP2;ratioP2;P2;SDS_P1;SDS_P2;PMS_P1;PMS_P2;Temp;Humidity;BMP_temperature;BMP_pressure;BME280_temperature;BME280_humidity;BME280_pressure;Samples;Min_cycle;Max_cycle;Signal;HPM_P1;HPM_P2
2022/05/08 07:59:00;;;;;;;17.30;6.32;;;;;;;12.70;60.67;102693.56;5297480;28;20401;-69
2022/05/08 08:01:31;;;;;;;20.20;5.60;;;;;;;12.87;60.86;102691.56;5301218;28;20386;-70
2022/05/08 08:04:04;;;;;;;19.25;6.55;;;;;;;12.94;60.33;102697.78;5287174;28;20031;-71
2022/05/08 08:06:36;;;;;;;13.88;5.72;;;;;;;12.95;60.49;102707.81;5300967;28;20040;-71
2022/05/08 08:09:08;;;;;;;15.10;6.28;;;;;;;12.89;60.02;102714.44;5300055;28;20024;-71
2022/05/08 08:11:41;;;;;;;15.40;5.18;;;;;;;13.18;62.07;102708.63;5300369;28;20096;-74
2022/05/08 08:14:13;;;;;;;16.80;5.43;;;;;;;13.18;58.42;102705.84;5300714;28;20032;-74
2022/05/08 08:16:44;;;;;;;14.90;4.97;;;;;;;13.25;59.15;102700.91;5299837;28;20489;-70
2022/05/08 08:19:15;;;;;;;13.77;5.20;;;;;;;13.31;58.44;102705.44;5298022;28;20036;-71
2022/05/08 08:21:46;;;;;;;13.85;6.65;;;;;;;13.30;57.49;102703.78;5300544;28;20426;-71
2022/05/08 08:24:21;;;;;;;18.52;5.20;;;;;;;13.39;57.55;102706.91;5300100;28;20077;-71
2022/05/08 08:26:52;;;;;;;16.45;5.93;;;;;;;13.25;58.16;102703.69;5301020;28;20028;-68
2022/05/08 08:29:23;;;;;;;15.57;6.45;;;;;;;13.42;58.61;102704.47;5299959;28;20020;-71
2022/05/08 08:31:54;;;;;;;12.45;4.55;;;;;;;13.67;57.41;102708.56;5294441;28;20050;-72
2022/05/08 08:34:28;;;;;;;13.43;5.47;;;;;;;13.79;57.44;102703.66;5279290;28;20115;-72
2022/05/08 08:37:00;;;;;;;14.50;5.30;;;;;;;13.76;55.73;102708.94;5295558;28;20032;-71
2022/05/08 08:39:31;;;;;;;16.38;6.28;;;;;;;14.01;56.84;102716.66;5298040;28;20040;-72
2022/05/08 08:42:25;;;;;;;18.58;5.93;;;;;;;14.14;56.85;102716.22;5300761;28;20363;-70
2022/05/08 08:47:56;;;;;;;14.52;5.85;;;;;;;14.33;55.08;102705.44;5300086;28;20390;-72
2022/05/08 08:50:28;;;;;;;17.02;5.90;;;;;;;14.39;56.34;102703.50;5281989;28;20024;-72
2022/05/08 08:53:02;;;;;;;14.40;6.03;;;;;;;14.30;55.26;102701.22;5278414;28;20020;-72
2022/05/08 08:55:34;;;;;;;13.52;6.40;;;;;;;14.48;54.99;102704.69;5279417;28;20418;-72
2022/05/08 08:58:05;;;;;;;19.52;6.70;;;;;;;14.63;54.46;102710.38;5278697;28;20056;-71
2022/05/08 09:00:36;;;;;;;14.57;6.13;;;;;;;14.35;53.88;102706.84;5278248;28;20039;-71
2022/05/08 09:03:08;;;;;;;16.10;5.32;;;;;;;14.44;53.56;102701.56;5278999;28;20468;-70
2022/05/08 09:05:41;;;;;;;13.18;6.05;;;;;;;14.41;52.46;102706.88;5279880;28;20079;-70
2022/05/08 09:08:32;;;;;;;14.80;5.40;;;;;;;14.16;52.56;102711.16;5275587;28;20033;-72
2022/05/08 09:11:03;;;;;;;19.92;13.40;;;;;;;14.39;52.24;102709.09;5273707;28;20020;-70
2022/05/08 09:13:48;;;;;;;42.70;31.50;;;;;;;14.64;51.08;102712.03;5286048;28;20052;-72
2022/05/08 09:16:19;;;;;;;15.43;5.22;;;;;;;14.59;50.55;102714.81;5285120;28;20028;-70
2022/05/08 09:18:51;;;;;;;17.30;5.47;;;;;;;14.50;49.98;102710.84;5264590;28;20036;-71
2022/05/08 09:24:16;;;;;;;17.73;4.55;;;;;;;14.57;47.92;102705.88;5267088;28;20448;-72
2022/05/08 09:26:49;;;;;;;11.27;4.15;;;;;;;14.77;48.53;102703.16;5285529;28;20036;-71
2022/05/08 09:29:22;;;;;;;12.45;4.40;;;;;;;14.96;47.68;102713.88;5264956;28;20041;-71
2022/05/08 09:31:53;;;;;;;7.22;3.60;;;;;;;14.82;46.57;102707.09;5265011;28;20448;-72
2022/05/08 09:34:24;;;;;;;15.05;5.13;;;;;;;14.84;47.85;102696.50;5264856;28;20029;-73
2022/05/08 09:37:08;;;;;;;11.38;4.22;;;;;;;15.04;46.79;102698.53;5271979;28;20040;-73
2022/05/08 09:39:39;;;;;;;12.43;4.03;;;;;;;15.18;46.39;102699.66;5281453;28;20055;-72
2022/05/08 09:42:35;;;;;;;11.98;3.88;;;;;;;15.27;45.07;102703.59;5264067;28;20024;-71
2022/05/08 09:45:08;;;;;;;26.23;11.53;;;;;;;15.39;46.31;102690.22;5273920;28;20118;-72
2022/05/08 09:47:49;;;;;;;10.98;4.85;;;;;;;15.52;45.72;102694.44;5285128;28;20111;-70
2022/05/08 09:50:20;;;;;;;12.90;3.95;;;;;;;15.56;46.51;102698.31;5284321;28;20078;-70
2022/05/08 09:52:52;;;;;;;14.32;5.78;;;;;;;15.68;46.80;102697.22;5285195;28;20024;-71
2022/05/08 09:55:24;;;;;;;11.77;3.85;;;;;;;15.70;45.75;102701.47;5285306;28;20043;-72
2022/05/08 09:57:55;;;;;;;8.77;3.88;;;;;;;15.91;46.38;102695.84;5282868;28;20064;-71
2022/05/08 10:00:27;;;;;;;10.77;4.93;;;;;;;16.01;47.44;102696.69;5284565;28;20036;-72
2022/05/08 10:02:59;;;;;;;12.68;4.85;;;;;;;15.88;47.84;102690.81;5268226;28;20481;-72
2022/05/08 10:05:31;;;;;;;12.38;5.10;;;;;;;16.00;47.54;102688.56;5263291;28;20025;-71
2022/05/08 10:08:03;;;;;;;9.95;4.00;;;;;;;16.10;47.55;102688.53;5263766;28;20025;-71
2022/05/08 10:13:53;;;;;;;11.20;4.53;;;;;;;16.28;47.47;102685.16;5264514;28;20438;-71
2022/05/08 10:16:44;;;;;;;12.52;4.03;;;;;;;16.28;47.47;102675.91;5263780;28;20095;-70
2022/05/08 10:19:18;;;;;;;12.38;4.30;;;;;;;16.40;47.29;102684.81;5263302;28;20483;-67
2022/05/08 10:21:55;;;;;;;12.85;4.50;;;;;;;16.32;45.86;102671.41;5262597;28;20021;-71
2022/05/08 10:24:54;;;;;;;10.13;4.07;;;;;;;16.47;46.82;102670.53;5262935;28;20503;-70
2022/05/08 10:27:29;;;;;;;11.13;4.93;;;;;;;16.53;46.99;102673.00;5269839;28;20021;-71
2022/05/08 10:30:03;;;;;;;13.23;6.20;;;;;;;16.56;45.83;102671.59;5284005;28;20020;-71
2022/05/08 10:32:34;;;;;;;11.23;4.00;;;;;;;16.68;44.55;102672.13;5264036;28;20434;-71
2022/05/08 10:35:17;;;;;;;10.10;3.90;;;;;;;16.33;44.13;102675.88;5264233;28;20113;-69
2022/05/08 10:37:50;;;;;;;10.68;4.07;;;;;;;16.35;50.35;102672.81;5273108;28;20031;-68
2022/05/08 10:40:25;;;;;;;11.77;4.03;;;;;;;16.38;48.81;102670.28;5281817;28;20024;-68
2022/05/08 10:43:25;;;;;;;12.23;4.18;;;;;;;16.30;48.09;102657.69;5283413;28;20033;-68
2022/05/08 10:46:20;;;;;;;11.75;4.10;;;;;;;16.44;48.80;102660.75;5283109;28;20036;-69
2022/05/08 10:48:54;;;;;;;8.70;4.05;;;;;;;16.48;48.68;102647.84;5279452;28;20070;-68
2022/05/08 10:51:26;;;;;;;12.77;4.60;;;;;;;16.55;45.71;102653.13;5283660;28;20033;-68
2022/05/08 10:54:10;;;;;;;10.43;3.78;;;;;;;16.66;44.68;102668.75;5279796;28;20078;-70
2022/05/08 10:56:47;;;;;;;14.57;4.93;;;;;;;16.77;44.67;102658.38;5283602;28;20028;-69
2022/05/08 10:59:19;;;;;;;9.52;4.10;;;;;;;16.83;44.75;102657.25;5273782;28;20049;-70
2022/05/08 11:01:51;;;;;;;6.88;2.95;;;;;;;16.90;49.02;102652.16;5262290;28;20057;-68
2022/05/08 11:04:22;;;;;;;10.30;3.80;;;;;;;16.86;43.91;102650.22;5274408;28;20051;-68
2022/05/08 11:06:54;;;;;;;10.90;4.10;;;;;;;16.97;44.87;102645.38;5282451;28;20024;-69
2022/05/08 11:09:25;;;;;;;9.40;4.35;;;;;;;17.04;45.31;102655.16;5279620;28;20478;-69
2022/05/08 11:12:04;;;;;;;12.68;4.43;;;;;;;16.94;44.46;102653.25;5263162;28;20036;-69
2022/05/08 11:14:35;;;;;;;7.32;2.58;;;;;;;16.98;46.17;102656.31;5261813;28;20017;-70
2022/05/08 11:17:15;;;;;;;10.50;4.57;;;;;;;17.04;43.72;102665.53;5262318;28;20024;-69
2022/05/08 11:19:53;;;;;;;11.43;3.92;;;;;;;17.11;46.50;102652.88;5262456;28;20029;-68
2022/05/08 11:22:24;;;;;;;8.73;3.78;;;;;;;17.12;44.33;102653.69;5267971;28;20032;-69
2022/05/08 11:25:12;;;;;;;10.52;3.53;;;;;;;17.37;43.91;102647.91;5273364;28;20434;-69
2022/05/08 11:27:50;;;;;;;10.15;4.15;;;;;;;17.37;43.58;102645.09;5277117;28;20143;-69
2022/05/08 11:30:37;;;;;;;9.48;3.70;;;;;;;17.51;43.42;102642.47;5282555;28;20112;-69
2022/05/08 11:36:27;;;;;;;11.10;3.88;;;;;;;17.09;43.45;102643.06;5215280;28;20034;-67
2022/05/08 11:39:04;;;;;;;7.00;3.63;;;;;;;17.46;43.26;102636.91;5209689;28;20412;-69
2022/05/08 11:41:42;;;;;;;5.93;3.10;;;;;;;17.53;44.17;102639.38;5246115;28;20228;-68
2022/05/08 11:44:13;;;;;;;9.02;3.42;;;;;;;17.46;40.83;102638.84;5271545;28;20369;-70
2022/05/08 11:46:51;;;;;;;9.37;3.10;;;;;;;17.69;42.18;102638.13;5283103;28;20124;-69
2022/05/08 11:49:28;;;;;;;11.07;4.72;;;;;;;17.67;41.53;102637.56;5282449;28;20347;-69
2022/05/08 11:52:03;;;;;;;9.45;3.38;;;;;;;17.47;42.06;102637.75;5282590;28;20356;-70
2022/05/08 11:54:36;;;;;;;9.90;3.88;;;;;;;17.72;42.46;102623.50;5282461;28;20467;-69
2022/05/08 11:57:16;;;;;;;6.38;4.15;;;;;;;17.68;42.11;102622.41;5276052;28;20045;-69
2022/05/08 12:00:05;;;;;;;11.75;4.90;;;;;;;17.87;44.12;102619.72;5281857;28;20035;-68
2022/05/08 12:02:48;;;;;;;13.32;4.05;;;;;;;18.13;42.59;102620.28;5272709;28;20024;-70
2022/05/08 12:05:24;;;;;;;11.85;4.05;;;;;;;18.25;42.45;102608.63;5282963;28;20151;-74
2022/05/08 12:07:55;;;;;;;11.00;4.07;;;;;;;18.37;42.47;102611.84;5281162;28;20042;-72
2022/05/08 12:10:37;;;;;;;12.63;4.60;;;;;;;18.27;42.23;102606.34;5281603;28;20032;-71
2022/05/08 12:13:09;;;;;;;11.82;3.85;;;;;;;18.30;41.60;102605.75;5276339;28;20079;-71
2022/05/08 12:15:40;;;;;;;9.02;3.67;;;;;;;18.52;41.40;102595.94;5282307;28;20032;-71
2022/05/08 12:18:11;;;;;;;8.70;3.05;;;;;;;18.70;42.32;102592.31;5271951;28;20036;-72
2022/05/08 12:20:43;;;;;;;9.43;2.95;;;;;;;18.69;40.13;102593.47;5261967;28;20075;-70
2022/05/08 12:23:15;;;;;;;9.00;3.03;;;;;;;18.79;39.67;102590.53;5261684;28;20048;-74
2022/05/08 12:25:48;;;;;;;6.32;3.60;;;;;;;18.72;39.18;102597.66;5275825;28;20028;-69
2022/05/08 12:28:21;;;;;;;11.13;3.88;;;;;;;18.71;39.23;102596.78;5283001;28;20033;-72
2022/05/08 12:30:52;;;;;;;5.72;2.83;;;;;;;18.84;39.04;102595.22;5277389;28;20016;-72
2022/05/08 12:33:23;;;;;;;9.32;3.35;;;;;;;18.98;38.31;102587.72;5282239;28;20414;-72
2022/05/08 12:35:55;;;;;;;7.75;3.60;;;;;;;19.16;39.23;102591.66;5272760;28;20486;-69
2022/05/08 12:38:26;;;;;;;7.63;2.97;;;;;;;18.98;39.12;102587.72;5270632;28;20033;-73
2022/05/08 12:40:58;;;;;;;10.05;3.20;;;;;;;19.15;38.27;102586.31;5282079;28;20077;-73
2022/05/08 12:43:29;;;;;;;7.93;3.10;;;;;;;19.15;38.64;102586.31;5282952;28;20024;-72
2022/05/08 12:46:01;;;;;;;10.02;3.33;;;;;;;19.23;38.76;102582.84;5285308;28;20028;-72
2022/05/08 12:48:32;;;;;;;5.93;3.10;;;;;;;19.20;38.07;102583.41;5266983;28;20025;-72
2022/05/08 12:51:04;;;;;;;7.93;3.05;;;;;;;19.29;38.69;102590.84;5276938;28;20032;-71
2022/05/08 12:53:35;;;;;;;9.85;3.72;;;;;;;19.12;38.00;102587.75;5281880;28;20031;-72
2022/05/08 12:56:07;;;;;;;10.98;4.25;;;;;;;19.30;38.47;102583.25;5277440;28;20028;-71
2022/05/08 13:01:28;;;;;;;9.80;3.45;;;;;;;19.51;37.95;102576.13;5285807;28;20041;-72
2022/05/08 13:04:00;;;;;;;7.03;2.95;;;;;;;19.64;37.23;102576.50;5279334;28;20368;-72
2022/05/08 13:06:32;;;;;;;9.30;3.70;;;;;;;19.70;37.13;102578.09;5264564;28;20052;-74
2022/05/08 13:09:06;;;;;;;6.50;2.65;;;;;;;19.68;36.22;102578.38;5275328;28;20021;-74
2022/05/08 13:11:38;;;;;;;7.25;2.85;;;;;;;19.89;37.45;102578.00;5264811;28;20028;-76
2022/05/08 13:14:09;;;;;;;8.40;3.10;;;;;;;19.91;36.58;102575.69;5264457;28;20529;-75
2022/05/08 13:16:41;;;;;;;5.93;2.63;;;;;;;19.96;36.64;102576.44;5264769;28;20108;-73
2022/05/08 13:19:12;;;;;;;6.18;3.00;;;;;;;19.91;36.02;102576.53;5285395;28;20415;-75
2022/05/08 13:21:44;;;;;;;8.20;3.15;;;;;;;19.83;36.27;102574.44;5272025;28;20035;-77
2022/05/08 13:24:16;;;;;;;7.05;3.22;;;;;;;19.84;35.70;102567.69;5286026;28;20048;-76
2022/05/08 13:26:47;;;;;;;11.25;7.43;;;;;;;19.92;35.53;102566.97;5270298;28;20036;-71
2022/05/08 13:29:19;;;;;;;7.32;3.00;;;;;;;19.90;36.20;102569.25;5271211;28;20340;-73
2022/05/08 13:31:51;;;;;;;7.30;2.78;;;;;;;19.93;35.74;102557.34;5274256;28;20029;-73
2022/05/08 13:34:28;;;;;;;6.68;2.58;;;;;;;20.03;35.35;102555.50;5279325;28;20096;-72
2022/05/08 13:36:59;;;;;;;7.25;2.65;;;;;;;20.17;35.73;102550.66;5282651;28;20035;-73
2022/05/08 13:39:31;;;;;;;5.35;2.50;;;;;;;20.50;34.57;102548.53;5284659;28;20021;-74
2022/05/08 13:42:02;;;;;;;9.38;4.13;;;;;;;20.54;34.98;102548.75;5283951;28;20017;-72
2022/05/08 13:44:34;;;;;;;6.00;3.33;;;;;;;20.48;33.80;102547.19;5264364;28;20032;-74
2022/05/08 13:47:06;;;;;;;8.90;2.55;;;;;;;20.72;34.38;102546.97;5265547;28;20490;-74
2022/05/08 13:49:37;;;;;;;6.05;2.53;;;;;;;20.63;34.38;102544.91;5284013;28;20107;-75
2022/05/08 13:52:09;;;;;;;6.90;2.65;;;;;;;20.72;34.37;102542.16;5284277;28;20395;-77
2022/05/08 13:54:43;;;;;;;5.47;2.78;;;;;;;20.75;34.36;102535.88;5280776;28;20463;-76
2022/05/08 13:57:14;;;;;;;8.43;3.03;;;;;;;20.95;34.30;102539.34;5268616;28;20059;-73
2022/05/08 13:59:45;;;;;;;7.85;2.90;;;;;;;20.81;34.33;102537.44;5277644;28;20025;-73
2022/05/08 14:02:17;;;;;;;5.70;2.50;;;;;;;20.66;33.81;102540.63;5276984;28;20536;-73
2022/05/08 14:04:48;;;;;;;5.10;2.72;;;;;;;20.73;34.18;102541.00;5284560;28;20044;-72
2022/05/08 14:07:19;;;;;;;6.32;2.67;;;;;;;20.59;34.19;102540.22;5284182;28;20416;-71
2022/05/08 14:09:53;;;;;;;5.97;2.78;;;;;;;20.70;33.96;102527.53;5283903;28;20383;-73
2022/05/08 14:12:26;;;;;;;7.95;3.05;;;;;;;20.70;33.42;102527.53;5274489;28;20024;-73
2022/05/08 14:14:57;;;;;;;4.95;2.75;;;;;;;20.53;32.87;102533.84;5278325;28;20056;-74
2022/05/08 14:17:30;;;;;;;6.88;2.97;;;;;;;20.82;32.84;102522.19;5270931;28;20117;-73
2022/05/08 14:20:03;;;;;;;3.95;2.17;;;;;;;21.05;32.62;102530.66;5276435;28;20047;-73
2022/05/08 14:22:34;;;;;;;6.18;2.30;;;;;;;20.93;31.99;102528.38;5283855;28;20078;-72
2022/05/08 14:25:06;;;;;;;6.28;2.25;;;;;;;20.96;32.43;102524.94;5283556;28;20029;-72
2022/05/08 14:27:38;;;;;;;7.20;2.58;;;;;;;20.78;31.97;102512.66;5272430;28;20052;-73
2022/05/08 14:30:10;;;;;;;8.50;2.33;;;;;;;21.03;32.38;102504.75;5268234;28;20411;-73
2022/05/08 14:36:18;;;;;;;5.43;2.35;;;;;;;20.89;33.09;102510.47;5263824;28;20029;-73
2022/05/08 14:38:30;;;;;;;6.75;2.80;;;;;;;20.74;32.59;102499.56;5273296;28;20032;-73
2022/05/08 14:41:02;;;;;;;8.77;2.80;;;;;;;20.89;33.22;102498.31;5283655;28;20029;-72
2022/05/08 14:43:33;;;;;;;8.05;3.22;;;;;;;20.65;32.95;102496.66;5281571;28;20070;-73
2022/05/08 14:46:05;;;;;;;6.82;2.80;;;;;;;20.62;32.98;102498.13;5279464;28;20574;-73
2022/05/08 14:48:37;;;;;;;11.38;2.85;;;;;;;20.61;33.48;102495.63;5283942;28;20158;-73
2022/05/08 14:51:09;;;;;;;5.07;2.75;;;;;;;20.39;32.64;102500.03;5273286;28;20091;-72
2022/05/08 14:53:40;;;;;;;7.32;2.88;;;;;;;20.34;33.32;102494.50;5262273;28;20064;-71
2022/05/08 14:56:13;;;;;;;6.57;3.90;;;;;;;20.20;33.70;102500.19;5282328;28;20037;-72
2022/05/08 14:58:45;;;;;;;5.28;2.10;;;;;;;20.14;34.05;102495.81;5282514;28;20087;-73
2022/05/08 15:01:17;;;;;;;7.38;2.60;;;;;;;20.23;33.66;102498.72;5283279;28;20419;-73
2022/05/08 15:03:49;;;;;;;6.45;2.50;;;;;;;20.45;33.74;102495.09;5270248;28;20029;-70
2022/05/08 15:06:21;;;;;;;6.03;2.55;;;;;;;20.52;33.11;102483.41;5281291;28;20403;-71
2022/05/08 15:08:52;;;;;;;7.00;2.60;;;;;;;20.33;33.44;102492.88;5269868;28;20547;-69
2022/05/08 15:11:23;;;;;;;6.80;2.50;;;;;;;20.51;33.55;102481.75;5283540;28;20104;-71
2022/05/08 15:13:54;;;;;;;6.63;2.97;;;;;;;20.36;33.49;102478.13;5281959;28;20043;-69
2022/05/08 15:16:26;;;;;;;6.15;3.88;;;;;;;20.42;33.47;102479.66;5282938;28;20021;-69
2022/05/08 15:18:57;;;;;;;5.65;2.30;;;;;;;20.49;33.62;102484.06;5283051;28;20033;-68
2022/05/08 15:21:28;;;;;;;5.82;2.33;;;;;;;20.46;33.14;102481.88;5278888;28;20041;-68
2022/05/08 15:24:01;;;;;;;8.05;2.70;;;;;;;20.30;33.84;102470.97;5282765;28;20028;-68
2022/05/08 15:26:33;;;;;;;8.05;2.50;;;;;;;20.18;33.46;102463.03;5262701;28;20460;-68
2022/05/08 15:29:05;;;;;;;6.90;2.90;;;;;;;20.42;34.12;102471.22;5261512;28;20078;-66
2022/05/08 15:31:37;;;;;;;7.10;3.38;;;;;;;20.43;33.75;102466.44;5262438;28;20052;-68
2022/05/08 15:34:08;;;;;;;11.35;2.83;;;;;;;20.50;34.07;102469.63;5275307;28;20024;-69
2022/05/08 15:36:46;;;;;;;5.28;2.40;;;;;;;20.37;33.68;102465.69;5279429;28;20082;-69
2022/05/08 15:39:18;;;;;;;4.75;2.67;;;;;;;20.36;33.87;102463.22;5279456;28;20070;-69
2022/05/08 15:41:51;;;;;;;5.68;2.40;;;;;;;20.50;33.47;102471.63;5274899;28;20025;-69
2022/05/08 15:44:22;;;;;;;5.72;2.53;;;;;;;20.51;33.37;102462.03;5262467;28;20024;-69
2022/05/08 15:46:53;;;;;;;5.10;2.78;;;;;;;20.51;33.23;102467.66;5262542;28;20055;-69
2022/05/08 15:49:27;;;;;;;7.43;3.25;;;;;;;20.31;33.63;102463.34;5260417;28;20045;-69
2022/05/08 15:51:58;;;;;;;6.43;2.65;;;;;;;20.18;32.78;102468.69;5283154;28;20485;-70
2022/05/08 15:54:29;;;;;;;7.18;2.53;;;;;;;20.40;33.63;102456.63;5282225;28;20131;-69
2022/05/08 15:57:01;;;;;;;6.50;2.67;;;;;;;20.40;32.88;102455.78;5282128;28;20029;-68
2022/05/08 15:59:33;;;;;;;6.35;2.97;;;;;;;20.46;32.46;102460.16;5269306;28;20049;-71
2022/05/08 16:02:07;;;;;;;4.47;2.13;;;;;;;20.29;32.27;102451.53;5261430;28;20436;-69
2022/05/08 16:04:39;;;;;;;3.85;2.03;;;;;;;20.09;32.55;102456.47;5261889;28;20024;-70
2022/05/08 16:07:10;;;;;;;4.38;2.08;;;;;;;20.28;33.10;102450.72;5262015;28;20024;-69
2022/05/08 16:09:41;;;;;;;5.55;2.30;;;;;;;20.56;32.88;102450.66;5264445;28;20029;-68
2022/05/08 16:12:13;;;;;;;7.25;3.13;;;;;;;20.44;32.53;102442.72;5278523;28;20028;-68
2022/05/08 16:23:17;;;;;;;5.95;2.30;;;;;;;20.65;32.67;102437.47;5265284;28;20044;-69
2022/05/08 16:25:48;;;;;;;5.95;2.60;;;;;;;20.59;32.75;102438.75;5266108;28;20120;-69
2022/05/08 16:28:20;;;;;;;4.63;2.53;;;;;;;20.81;32.32;102447.22;5269135;28;20112;-69
2022/05/08 16:30:52;;;;;;;4.25;2.28;;;;;;;20.59;32.18;102450.84;5264766;28;20025;-69
2022/05/08 16:33:23;;;;;;;5.65;2.35;;;;;;;20.44;32.36;102442.72;5275137;28;20027;-69
2022/05/08 16:35:56;;;;;;;3.92;2.13;;;;;;;20.75;32.22;102442.84;5286430;28;20032;-69
2022/05/08 16:38:29;;;;;;;3.60;2.22;;;;;;;20.78;32.30;102444.19;5285494;28;20060;-68
2022/05/08 16:41:00;;;;;;;6.55;2.53;;;;;;;20.73;32.26;102450.78;5286353;28;20041;-68
2022/05/08 16:43:32;;;;;;;4.45;2.10;;;;;;;20.77;31.82;102445.34;5286643;28;20039;-68
2022/05/08 16:46:03;;;;;;;5.47;2.35;;;;;;;20.83;32.06;102446.88;5269965;28;20028;-69
2022/05/08 16:48:35;;;;;;;5.63;1.90;;;;;;;21.08;32.36;102445.38;5272315;28;20074;-69
2022/05/08 16:51:06;;;;;;;5.53;1.90;;;;;;;21.12;31.66;102442.75;5281665;28;20029;-70
2022/05/08 16:53:37;;;;;;;4.38;1.70;;;;;;;21.01;31.81;102448.69;5273840;28;20055;-70
2022/05/08 16:56:09;;;;;;;6.30;2.63;;;;;;;21.35;32.07;102443.53;5277639;28;20052;-70
2022/05/08 16:58:40;;;;;;;6.55;2.67;;;;;;;21.23;31.20;102450.59;5280045;28;20523;-69
2022/05/08 17:01:11;;;;;;;5.32;2.22;;;;;;;21.01;31.53;102450.63;5285235;28;20075;-69
2022/05/08 17:03:43;;;;;;;6.00;2.28;;;;;;;21.25;31.53;102447.47;5265436;28;20047;-71
2022/05/08 17:06:14;;;;;;;7.50;2.75;;;;;;;21.11;31.59;102447.53;5266335;28;20072;-70
2022/05/08 17:08:46;;;;;;;5.68;2.53;;;;;;;21.09;31.37;102452.69;5285938;28;20025;-71
2022/05/08 17:11:17;;;;;;;5.70;2.30;;;;;;;21.24;31.59;102449.47;5285806;28;20028;-71
2022/05/08 17:13:51;;;;;;;7.40;2.38;;;;;;;21.20;31.88;102451.25;5284756;28;20081;-70
2022/05/08 17:16:23;;;;;;;6.35;2.58;;;;;;;21.11;31.98;102450.38;5285843;28;20024;-71
2022/05/08 17:18:54;;;;;;;6.78;2.92;;;;;;;21.27;31.93;102454.47;5279728;28;20037;-70
2022/05/08 17:21:25;;;;;;;4.95;2.33;;;;;;;21.29;31.60;102451.28;5264158;28;20036;-70
2022/05/08 17:23:57;;;;;;;4.45;2.75;;;;;;;21.26;32.15;102444.31;5272661;28;20027;-70
2022/05/08 17:28:45;;;;;;;6.97;2.63;;;;;;;21.22;31.68;102445.31;5270678;28;20123;-72
2022/05/08 17:29:19;;;;;;;6.28;2.53;;;;;;;21.23;30.90;102446.97;5264015;28;20391;-71
